createdAt,value
2019-03-08T00:00:14.034Z,1.93
2019-03-08T00:03:17.410Z,0.90
2019-03-08T00:06:20.623Z,1.00
2019-03-08T00:09:23.810Z,1.27
2019-03-08T00:12:26.998Z,0.90
2019-03-08T00:15:30.083Z,1.20
2019-03-08T00:18:33.175Z,0.70
2019-03-08T00:21:36.275Z,1.07
2019-03-08T00:24:39.470Z,1.00
2019-03-08T00:27:42.554Z,1.13
2019-03-08T00:30:45.755Z,0.80
2019-03-08T00:33:48.856Z,0.70
2019-03-08T00:36:52.051Z,1.00
2019-03-08T00:39:55.227Z,2.30
2019-03-08T00:42:58.320Z,0.97
2019-03-08T00:46:01.410Z,0.63
2019-03-08T00:49:04.626Z,0.63
2019-03-08T00:52:07.802Z,0.90
2019-03-08T00:55:11.019Z,0.80
2019-03-08T00:58:14.220Z,0.80
2019-03-08T01:01:17.394Z,0.80
2019-03-08T01:04:20.583Z,0.90
2019-03-08T01:07:23.770Z,0.70
2019-03-08T01:10:26.888Z,0.80
2019-03-08T01:13:30.158Z,1.07
2019-03-08T01:16:33.258Z,0.80
2019-03-08T01:19:36.455Z,0.60
2019-03-08T01:22:39.647Z,0.90
2019-03-08T01:25:42.852Z,1.23
2019-03-08T01:28:46.044Z,0.70
2019-03-08T01:31:49.123Z,0.80
2019-03-08T01:34:52.343Z,0.63
2019-03-08T01:37:55.526Z,0.70
2019-03-08T01:40:59.697Z,0.80
2019-03-08T01:44:02.847Z,0.70
2019-03-08T01:47:06.019Z,0.60
2019-03-08T01:50:09.412Z,0.87
2019-03-08T01:53:12.508Z,0.73
2019-03-08T01:56:15.594Z,0.50
2019-03-08T01:59:18.686Z,0.60
2019-03-08T02:02:21.892Z,0.67
2019-03-08T02:05:24.972Z,0.40
2019-03-08T02:08:28.063Z,0.70
2019-03-08T02:11:31.154Z,0.90
2019-03-08T02:14:34.252Z,0.70
2019-03-08T02:17:37.351Z,0.70
2019-03-08T02:20:40.552Z,0.60
2019-03-08T02:23:43.735Z,0.70
2019-03-08T02:26:47.031Z,0.90
2019-03-08T02:29:50.124Z,1.00
2019-03-08T02:32:53.422Z,0.70
2019-03-08T02:35:56.722Z,0.70
2019-03-08T02:39:00.018Z,0.80
2019-03-08T02:42:03.896Z,0.60
2019-03-08T02:45:07.227Z,0.60
2019-03-08T02:48:10.414Z,0.70
2019-03-08T02:51:13.513Z,0.70
2019-03-08T02:54:16.733Z,0.80
2019-03-08T02:57:19.879Z,0.70
2019-03-08T03:00:23.030Z,0.77
2019-03-08T03:03:26.175Z,0.70
2019-03-08T03:06:29.261Z,0.63
2019-03-08T03:09:32.376Z,0.70
2019-03-08T03:12:35.465Z,0.70
2019-03-08T03:15:38.549Z,1.07
2019-03-08T03:18:41.757Z,0.73
2019-03-08T03:21:45.033Z,1.13
2019-03-08T03:24:48.151Z,1.07
2019-03-08T03:27:51.334Z,0.80
2019-03-08T03:30:54.528Z,1.20
2019-03-08T03:33:57.715Z,1.20
2019-03-08T03:37:00.933Z,1.20
2019-03-08T03:40:05.090Z,1.13
2019-03-08T03:43:08.244Z,1.17
2019-03-08T03:46:11.409Z,1.40
2019-03-08T03:49:14.499Z,1.00
2019-03-08T03:52:17.607Z,1.30
2019-03-08T03:55:20.707Z,0.97
2019-03-08T03:58:24.424Z,1.13
2019-03-08T04:01:30.631Z,1.10
2019-03-08T04:04:33.888Z,1.10
2019-03-08T04:07:37.059Z,1.10
2019-03-08T04:10:40.247Z,1.50
2019-03-08T04:13:43.439Z,1.37
2019-03-08T04:16:46.527Z,1.27
2019-03-08T04:19:49.770Z,1.20
2019-03-08T04:22:52.932Z,1.17
2019-03-08T04:25:56.133Z,1.30
2019-03-08T04:28:59.337Z,1.17
2019-03-08T04:32:02.507Z,1.10
2019-03-08T04:35:05.749Z,1.10
2019-03-08T04:38:08.895Z,0.90
2019-03-08T04:41:12.087Z,1.00
2019-03-08T04:44:15.188Z,1.10
2019-03-08T04:47:18.470Z,0.90
2019-03-08T04:50:21.576Z,1.10
2019-03-08T04:53:24.859Z,1.30
2019-03-08T04:56:27.948Z,1.10
2019-03-08T04:59:31.047Z,1.00
2019-03-08T05:02:34.252Z,1.20
2019-03-08T05:05:37.434Z,1.13
2019-03-08T05:08:40.530Z,0.80
2019-03-08T05:11:43.627Z,1.30
2019-03-08T05:14:46.919Z,1.20
2019-03-08T05:17:50.119Z,1.00
2019-03-08T05:20:53.316Z,1.10
2019-03-08T05:23:56.511Z,1.07
2019-03-08T05:26:59.605Z,1.10
2019-03-08T05:30:02.794Z,1.20
2019-03-08T05:33:05.874Z,1.10
2019-03-08T05:36:09.080Z,1.30
2019-03-08T05:39:12.187Z,1.20
2019-03-08T05:42:15.375Z,1.10
2019-03-08T05:45:18.583Z,0.90
2019-03-08T05:48:21.767Z,0.90
2019-03-08T05:51:24.950Z,1.10
2019-03-08T05:54:28.151Z,1.03
2019-03-08T05:57:31.344Z,1.00
2019-03-08T06:00:34.920Z,1.10
2019-03-08T06:03:37.831Z,1.20
2019-03-08T06:06:41.019Z,1.30
2019-03-08T06:09:44.118Z,1.17
2019-03-08T06:12:47.323Z,1.10
2019-03-08T06:15:50.539Z,1.10
2019-03-08T06:18:53.700Z,1.10
2019-03-08T06:21:56.899Z,0.83
2019-03-08T06:25:00.727Z,1.47
2019-03-08T06:28:04.403Z,1.07
2019-03-08T06:31:07.588Z,1.67
2019-03-08T06:34:10.693Z,1.43
2019-03-08T06:37:13.940Z,1.30
2019-03-08T06:40:17.106Z,1.40
2019-03-08T06:43:20.368Z,1.30
2019-03-08T06:46:23.459Z,1.33
2019-03-08T06:49:26.559Z,1.17
2019-03-08T06:52:29.650Z,1.17
2019-03-08T06:55:32.865Z,1.10
2019-03-08T06:58:41.431Z,1.07
2019-03-08T07:01:44.576Z,1.30
2019-03-08T07:04:47.755Z,1.27
2019-03-08T07:07:51.024Z,1.53
2019-03-08T07:10:54.160Z,1.40
2019-03-08T07:13:57.350Z,1.37
2019-03-08T07:17:00.545Z,1.17
2019-03-08T07:20:08.982Z,1.33
2019-03-08T07:23:15.968Z,1.23
2019-03-08T07:26:25.108Z,1.37
2019-03-08T07:29:33.395Z,1.40
2019-03-08T07:32:41.622Z,1.20
2019-03-08T07:35:50.002Z,1.50
2019-03-08T07:38:58.428Z,1.50
2019-03-08T07:42:07.104Z,1.37
2019-03-08T07:45:15.447Z,1.00
2019-03-08T07:49:29.703Z,1.63
2019-03-08T07:52:43.137Z,1.10
2019-03-08T07:55:57.113Z,1.10
2019-03-08T07:59:05.443Z,1.30
2019-03-08T08:02:13.908Z,1.10
2019-03-08T08:06:30.442Z,1.30
2019-03-08T08:09:37.736Z,1.10
2019-03-08T08:12:45.773Z,1.23
2019-03-08T08:15:54.351Z,1.50
2019-03-08T08:19:04.663Z,1.20
2019-03-08T08:22:14.036Z,1.30
2019-03-08T08:25:22.431Z,1.27
2019-03-08T08:30:33.788Z,1.37
2019-03-08T08:33:41.156Z,1.40
2019-03-08T08:37:52.563Z,1.83
2019-03-08T08:41:01.089Z,1.50
2019-03-08T08:44:09.626Z,1.03
2019-03-08T08:47:19.862Z,1.23
2019-03-08T08:50:33.094Z,1.20
2019-03-08T08:53:48.555Z,1.50
2019-03-08T08:56:57.086Z,1.17
2019-03-08T09:00:09.462Z,1.20
2019-03-08T09:03:17.843Z,1.67
2019-03-08T09:06:26.091Z,1.20
2019-03-08T09:09:36.415Z,1.30
2019-03-08T09:12:47.765Z,1.20
2019-03-08T09:15:55.916Z,1.50
2019-03-08T09:19:11.150Z,1.10
2019-03-08T09:22:26.546Z,1.13
2019-03-08T09:25:34.839Z,1.30
2019-03-08T09:28:42.148Z,1.50
2019-03-08T09:31:49.429Z,1.10
2019-03-08T09:34:57.688Z,1.20
2019-03-08T09:38:05.048Z,1.00
2019-03-08T09:41:13.710Z,1.20
2019-03-08T09:44:23.119Z,1.40
2019-03-08T09:47:31.340Z,1.30
2019-03-08T09:50:42.563Z,1.00
2019-03-08T09:53:51.899Z,1.30
2019-03-08T09:59:02.895Z,1.30
2019-03-08T10:02:14.064Z,1.10
2019-03-08T10:05:38.614Z,1.40
2019-03-08T10:08:46.893Z,1.30
2019-03-08T10:11:58.123Z,1.20
2019-03-08T10:15:12.471Z,1.27
2019-03-08T10:18:20.934Z,1.40
2019-03-08T10:21:39.229Z,1.17
2019-03-08T10:24:50.410Z,1.40
2019-03-08T10:27:57.689Z,1.40
2019-03-08T10:31:08.988Z,1.30
2019-03-08T10:34:16.268Z,1.40
2019-03-08T10:39:28.192Z,1.40
2019-03-08T10:43:38.251Z,1.23
2019-03-08T10:46:47.428Z,1.43
2019-03-08T10:49:58.827Z,1.50
2019-03-08T10:53:09.063Z,1.20
2019-03-08T10:56:20.494Z,1.70
2019-03-08T10:59:27.895Z,2.20
2019-03-08T11:02:36.084Z,1.67
2019-03-08T11:07:51.519Z,2.37
2019-03-08T11:11:15.026Z,1.33
2019-03-08T11:14:23.173Z,1.57
2019-03-08T11:17:33.489Z,1.30
2019-03-08T11:20:59.027Z,1.20
2019-03-08T11:24:07.208Z,1.63
2019-03-08T11:27:14.605Z,1.40
2019-03-08T11:30:23.031Z,1.50
2019-03-08T11:33:32.361Z,1.50
2019-03-08T11:36:44.176Z,1.57
2019-03-08T11:39:58.692Z,1.70
2019-03-08T11:43:13.071Z,1.70
2019-03-08T11:46:21.636Z,1.50
2019-03-08T11:49:30.242Z,1.97
2019-03-08T11:52:38.883Z,1.80
2019-03-08T11:55:59.355Z,1.90
2019-03-08T11:59:11.736Z,2.10
2019-03-08T12:02:20.989Z,2.20
2019-03-08T12:05:45.354Z,1.67
2019-03-08T12:08:52.719Z,1.80
2019-03-08T12:12:00.916Z,1.97
2019-03-08T12:15:10.011Z,2.00
2019-03-08T12:18:19.274Z,1.40
2019-03-08T12:21:32.833Z,1.53
2019-03-08T12:24:40.135Z,1.73
2019-03-08T12:27:48.559Z,1.40
2019-03-08T12:30:59.906Z,2.53
2019-03-08T12:34:44.699Z,1.23
2019-03-08T12:37:51.999Z,1.20
2019-03-08T12:41:06.368Z,1.00
2019-03-08T12:44:13.563Z,1.10
2019-03-08T12:47:36.955Z,1.40
2019-03-08T12:51:51.028Z,1.30
2019-03-08T12:54:59.624Z,1.40
2019-03-08T12:58:06.983Z,1.50
2019-03-08T13:01:14.276Z,1.40
2019-03-08T13:04:27.518Z,1.47
2019-03-08T13:07:37.679Z,1.60
2019-03-08T13:10:40.788Z,1.40
2019-03-08T13:13:44.022Z,1.20
2019-03-08T13:16:47.168Z,1.20
2019-03-08T13:19:50.370Z,1.20
2019-03-08T13:22:53.579Z,1.47
2019-03-08T13:25:56.767Z,1.57
2019-03-08T13:28:59.971Z,1.20
2019-03-08T13:32:03.168Z,1.60
2019-03-08T13:35:06.947Z,1.40
2019-03-08T13:38:10.144Z,1.57
2019-03-08T13:41:13.231Z,1.10
2019-03-08T13:44:16.347Z,2.07
2019-03-08T13:47:19.522Z,1.30
2019-03-08T13:50:22.715Z,1.60
2019-03-08T13:53:25.907Z,1.07
2019-03-08T13:56:29.103Z,0.73
2019-03-08T13:59:32.243Z,0.93
2019-03-08T14:02:35.396Z,0.90
2019-03-08T14:05:38.588Z,0.80
2019-03-08T14:08:41.784Z,1.10
2019-03-08T14:11:44.881Z,0.80
2019-03-08T14:14:47.991Z,1.00
2019-03-08T14:17:51.085Z,1.13
2019-03-08T14:20:54.255Z,0.93
2019-03-08T14:23:57.462Z,1.60
2019-03-08T14:27:00.623Z,1.10
2019-03-08T14:30:03.941Z,1.23
2019-03-08T14:33:07.239Z,1.43
2019-03-08T14:36:10.446Z,1.53
2019-03-08T14:39:13.628Z,1.80
2019-03-08T14:42:33.217Z,1.67
2019-03-08T14:45:44.521Z,1.60
2019-03-08T14:48:46.275Z,1.83
2019-03-08T14:51:49.424Z,1.50
2019-03-08T14:54:51.337Z,1.40
2019-03-08T14:57:55.312Z,1.40
2019-03-08T15:00:57.597Z,1.80
2019-03-08T15:04:00.686Z,1.73
2019-03-08T15:07:04.585Z,1.40
2019-03-08T15:10:07.723Z,1.70
2019-03-08T15:13:10.914Z,1.30
2019-03-08T15:16:14.343Z,1.80
2019-03-08T15:19:17.495Z,4.77
2019-03-08T15:22:20.680Z,1.70
2019-03-08T15:25:23.876Z,2.10
2019-03-08T15:28:26.966Z,1.80
2019-03-08T15:31:30.171Z,1.70
2019-03-08T15:34:33.352Z,2.03
2019-03-08T15:37:43.979Z,2.00
2019-03-08T15:40:39.757Z,1.80
2019-03-08T15:43:42.934Z,1.67
2019-03-08T15:46:46.039Z,1.63
2019-03-08T15:49:49.224Z,1.63
2019-03-08T15:52:52.431Z,1.70
2019-03-08T15:55:55.657Z,2.13
2019-03-08T15:58:58.817Z,1.80
2019-03-08T16:02:05.784Z,1.80
2019-03-08T16:05:05.278Z,1.57
2019-03-08T16:08:08.412Z,1.50
2019-03-08T16:11:11.621Z,1.80
2019-03-08T16:14:14.803Z,2.17
2019-03-08T16:17:17.988Z,2.43
2019-03-08T16:20:21.084Z,1.90
2019-03-08T16:23:24.311Z,1.77
2019-03-08T16:26:27.559Z,1.80
2019-03-08T16:29:30.785Z,2.27
2019-03-08T16:32:39.278Z,1.83
2019-03-08T16:36:05.800Z,1.57
2019-03-08T16:39:14.514Z,1.80
2019-03-08T16:42:37.055Z,1.80
2019-03-08T16:45:50.631Z,1.70
2019-03-08T16:49:10.599Z,1.87
2019-03-08T16:52:50.463Z,2.40
2019-03-08T16:55:59.765Z,1.70
2019-03-08T16:59:08.955Z,1.70
2019-03-08T17:02:17.258Z,1.97
2019-03-08T17:05:25.867Z,2.17
2019-03-08T17:08:38.220Z,2.10
2019-03-08T17:11:47.497Z,2.13
2019-03-08T17:14:54.796Z,2.13
2019-03-08T17:18:02.077Z,1.73
2019-03-08T17:21:21.447Z,1.93
2019-03-08T17:24:33.689Z,2.10
2019-03-08T17:27:43.980Z,2.00
2019-03-08T17:30:52.168Z,1.40
2019-03-08T17:34:00.524Z,2.00
2019-03-08T17:37:09.940Z,1.67
2019-03-08T17:41:17.046Z,1.60
2019-03-08T17:44:25.535Z,1.93
2019-03-08T17:51:24.044Z,1.77
2019-03-08T17:54:31.315Z,2.13
2019-03-08T17:57:40.451Z,2.20
2019-03-08T18:00:52.628Z,2.87
2019-03-08T18:04:07.852Z,2.60
2019-03-08T18:07:16.651Z,2.87
2019-03-08T18:10:24.645Z,2.10
2019-03-08T18:14:32.027Z,2.00
2019-03-08T18:17:39.312Z,2.07
2019-03-08T18:20:46.627Z,2.00
2019-03-08T18:24:02.069Z,2.23
2019-03-08T18:27:15.367Z,2.20
2019-03-08T18:30:25.640Z,2.20
2019-03-08T18:34:09.676Z,2.70
2019-03-08T18:37:18.331Z,2.43
2019-03-08T18:40:27.881Z,2.20
2019-03-08T18:43:35.184Z,2.40
2019-03-08T18:46:43.672Z,3.33
2019-03-08T18:49:54.419Z,3.17
2019-03-08T18:53:03.081Z,2.97
2019-03-08T18:56:15.479Z,2.90
2019-03-08T18:59:34.987Z,2.67
2019-03-08T19:02:43.318Z,3.03
2019-03-08T19:05:52.607Z,2.70
2019-03-08T19:09:01.794Z,2.83
2019-03-08T19:12:09.064Z,3.03
2019-03-08T19:15:25.473Z,3.00
2019-03-08T19:18:32.783Z,3.00
2019-03-08T19:21:45.164Z,3.10
2019-03-08T19:24:54.011Z,3.07
2019-03-08T19:28:06.235Z,3.00
2019-03-08T19:32:12.422Z,3.60
2019-03-08T19:35:38.944Z,2.73
2019-03-08T19:38:47.054Z,3.70
2019-03-08T19:41:55.191Z,3.50
2019-03-08T19:45:03.416Z,3.03
2019-03-08T19:48:10.781Z,3.10
2019-03-08T19:51:19.151Z,3.10
2019-03-08T19:54:27.499Z,2.90
2019-03-08T19:57:43.876Z,3.10
2019-03-08T20:00:52.080Z,3.10
2019-03-08T20:04:00.664Z,2.90
2019-03-08T20:07:09.295Z,2.20
2019-03-08T20:11:16.854Z,2.63
2019-03-08T20:14:31.108Z,3.10
2019-03-08T20:17:38.501Z,3.43
2019-03-08T20:20:49.707Z,3.73
2019-03-08T20:23:57.087Z,2.53
2019-03-08T20:27:06.822Z,2.40
2019-03-08T20:30:15.044Z,2.20
2019-03-08T20:33:28.296Z,2.67
2019-03-08T20:36:35.673Z,2.60
2019-03-08T20:39:45.868Z,2.47
2019-03-08T20:42:54.363Z,2.10
2019-03-08T20:46:04.895Z,2.13
2019-03-08T20:49:08.036Z,2.63
2019-03-08T20:52:11.145Z,1.97
2019-03-08T20:55:14.328Z,2.20
2019-03-08T20:58:17.994Z,2.10
2019-03-08T21:01:21.595Z,2.10
2019-03-08T21:04:24.783Z,2.90
2019-03-08T21:07:27.934Z,2.33
2019-03-08T21:10:31.038Z,2.10
2019-03-08T21:13:34.215Z,1.97
2019-03-08T21:16:37.551Z,2.20
2019-03-08T21:19:40.606Z,2.43
2019-03-08T21:22:43.820Z,2.33
2019-03-08T21:25:47.069Z,2.13
2019-03-08T21:28:50.173Z,2.23
2019-03-08T21:31:53.385Z,2.57
2019-03-08T21:34:56.585Z,2.90
2019-03-08T21:37:59.771Z,2.50
2019-03-08T21:41:02.942Z,2.57
2019-03-08T21:44:06.052Z,2.40
2019-03-08T21:47:09.251Z,2.80
2019-03-08T21:50:12.964Z,2.50
2019-03-08T21:53:16.146Z,2.70
2019-03-08T21:56:19.231Z,2.73
2019-03-08T21:59:22.523Z,2.90
2019-03-08T22:02:25.746Z,2.63
2019-03-08T22:05:31.888Z,2.80
2019-03-08T22:08:35.059Z,2.50
2019-03-08T22:11:40.387Z,2.67
2019-03-08T22:14:43.513Z,2.20
2019-03-08T22:17:46.707Z,2.30
2019-03-08T22:20:49.811Z,2.53
2019-03-08T22:23:53.059Z,2.62
2019-03-08T22:26:56.195Z,2.13
2019-03-08T22:29:59.391Z,2.10
2019-03-08T22:33:02.586Z,2.37
2019-03-08T22:36:05.767Z,2.20
2019-03-08T22:39:08.857Z,2.20
2019-03-08T22:42:11.958Z,1.83
2019-03-08T22:45:15.075Z,2.07
2019-03-08T22:48:18.293Z,2.07
2019-03-08T22:51:21.554Z,1.90
2019-03-08T22:54:24.750Z,1.90
2019-03-08T22:57:28.038Z,2.30
2019-03-08T23:00:38.656Z,1.90
2019-03-08T23:03:41.802Z,2.40
2019-03-08T23:06:44.995Z,1.90
2019-03-08T23:09:48.185Z,1.90
2019-03-08T23:12:51.271Z,2.23
2019-03-08T23:15:54.474Z,2.07
2019-03-08T23:18:57.657Z,2.00
2019-03-08T23:22:00.743Z,2.00
2019-03-08T23:25:03.871Z,2.30
2019-03-08T23:28:12.515Z,2.10
2019-03-08T23:32:18.746Z,1.90
2019-03-08T23:35:21.959Z,1.90
2019-03-08T23:38:25.171Z,2.07
2019-03-08T23:41:28.353Z,2.10
2019-03-08T23:44:31.546Z,1.90
2019-03-08T23:47:35.431Z,1.87
2019-03-08T23:50:38.648Z,1.60
2019-03-08T23:53:41.827Z,1.77
2019-03-08T23:56:45.019Z,2.13
2019-03-08T23:59:48.231Z,1.80
